Time;durP1;ratioP1;P1;durP2;ratioP2;P2;SDS_P1;SDS_P2;PMS_P1;PMS_P2;Temp;Humidity;BMP_temperature;BMP_pressure;BME280_temperature;BME280_humidity;BME280_pressure;Samples;Min_cycle;Max_cycle;Signal;HPM_P1;HPM_P2
2021/04/29 00:01:56;;;;;;;14.50;10.95;;;12.10;99.90;;;;;;5043830;28;20126;-75
2021/04/29 00:04:24;;;;;;;15.32;10.27;;;12.20;99.90;;;;;;5048267;28;20041;-74
2021/04/29 00:06:50;;;;;;;15.43;10.50;;;12.30;99.90;;;;;;5048559;28;20575;-74
2021/04/29 00:09:16;;;;;;;16.13;10.75;;;12.30;99.90;;;;;;5049828;28;20052;-77
2021/04/29 00:11:43;;;;;;;15.35;10.10;;;12.30;99.90;;;;;;5047133;28;20095;-74
2021/04/29 00:14:11;;;;;;;14.68;10.57;;;12.30;99.90;;;;;;5045409;28;20072;-74
2021/04/29 00:16:39;;;;;;;14.85;9.73;;;12.30;99.90;;;;;;5049025;28;20160;-75
2021/04/29 00:19:07;;;;;;;14.52;10.05;;;12.30;99.90;;;;;;5047622;28;20056;-74
2021/04/29 00:21:34;;;;;;;13.85;9.88;;;12.30;99.90;;;;;;5043312;28;20056;-75
2021/04/29 00:24:00;;;;;;;14.82;10.65;;;12.20;99.90;;;;;;5046979;28;20056;-75
2021/04/29 00:26:26;;;;;;;16.45;10.55;;;12.30;99.90;;;;;;5045975;28;20084;-74
2021/04/29 00:28:53;;;;;;;18.13;11.88;;;12.40;99.90;;;;;;5047780;28;20045;-74
2021/04/29 00:31:21;;;;;;;16.38;11.55;;;12.40;99.90;;;;;;5049783;28;20076;-74
2021/04/29 00:33:48;;;;;;;15.80;10.82;;;12.40;99.90;;;;;;5045640;28;20053;-74
2021/04/29 00:36:14;;;;;;;14.27;9.93;;;12.40;99.90;;;;;;5046503;28;20076;-74
2021/04/29 00:38:41;;;;;;;13.73;9.70;;;12.40;99.90;;;;;;5048492;28;20057;-74
2021/04/29 00:41:08;;;;;;;13.73;10.05;;;12.50;99.90;;;;;;5047102;28;20081;-74
2021/04/29 00:43:34;;;;;;;15.63;10.10;;;12.60;99.90;;;;;;5044853;28;20048;-74
2021/04/29 00:46:01;;;;;;;20.23;11.30;;;12.60;99.90;;;;;;5049517;28;20538;-74
2021/04/29 00:48:27;;;;;;;18.40;11.32;;;12.50;99.90;;;;;;5063603;28;20084;-74
2021/04/29 00:50:54;;;;;;;17.38;11.35;;;12.40;99.90;;;;;;5046099;28;20110;-75
2021/04/29 00:53:31;;;;;;;18.23;10.52;;;12.40;99.90;;;;;;5045768;28;20045;-75
2021/04/29 00:55:57;;;;;;;12.77;9.25;;;12.50;99.90;;;;;;5062097;28;20111;-74
2021/04/29 00:58:24;;;;;;;13.43;9.23;;;12.50;99.90;;;;;;5042599;28;20084;-74
2021/04/29 01:00:50;;;;;;;12.25;9.57;;;12.40;99.90;;;;;;5038637;28;20159;-74
2021/04/29 01:03:43;;;;;;;13.82;8.98;;;12.50;99.90;;;;;;5048565;28;20080;-74
2021/04/29 01:06:17;;;;;;;13.65;8.35;;;12.50;99.90;;;;;;5034907;28;20049;-74
2021/04/29 01:08:55;;;;;;;15.73;8.90;;;12.60;99.90;;;;;;5046865;28;20435;-75
2021/04/29 01:11:28;;;;;;;13.63;8.77;;;12.60;99.90;;;;;;5047346;28;20142;-75
2021/04/29 01:13:58;;;;;;;12.82;7.82;;;12.60;99.90;;;;;;5045036;28;20052;-74
2021/04/29 01:16:25;;;;;;;11.45;7.85;;;12.60;99.90;;;;;;5062221;28;20057;-75
2021/04/29 01:18:53;;;;;;;10.88;7.75;;;12.60;99.90;;;;;;5048319;28;20051;-75
2021/04/29 01:21:21;;;;;;;13.63;7.85;;;12.50;99.90;;;;;;5044610;28;20076;-74
2021/04/29 01:24:02;;;;;;;13.38;8.43;;;12.50;99.90;;;;;;5045826;28;20049;-74
2021/04/29 01:26:37;;;;;;;11.30;7.72;;;12.40;99.90;;;;;;5047950;28;20084;-75
2021/04/29 01:29:07;;;;;;;13.25;6.93;;;12.40;99.90;;;;;;5043388;28;20041;-74
2021/04/29 01:31:37;;;;;;;10.77;6.75;;;12.30;99.90;;;;;;5046763;28;20096;-74
2021/04/29 01:34:06;;;;;;;9.50;6.53;;;12.30;99.90;;;;;;5047050;28;20136;-74
2021/04/29 01:36:34;;;;;;;10.38;6.88;;;12.20;99.90;;;;;;5046935;28;20627;-74
2021/04/29 01:39:07;;;;;;;10.32;6.68;;;12.20;99.90;;;;;;5045132;28;20056;-74
2021/04/29 01:41:38;;;;;;;10.20;6.72;;;12.20;99.90;;;;;;5048110;28;20530;-74
2021/04/29 01:44:08;;;;;;;7.07;5.20;;;12.20;99.90;;;;;;5042048;28;20120;-75
2021/04/29 01:46:35;;;;;;;;;;;12.20;99.90;;;;;;5047056;28;20060;-75
2021/04/29 01:49:03;;;;;;;8.32;5.55;;;12.10;99.90;;;;;;5047473;28;20616;-75
2021/04/29 01:51:31;;;;;;;8.35;5.30;;;12.10;99.90;;;;;;5044463;28;20546;-74
2021/04/29 01:54:00;;;;;;;12.50;5.38;;;12.20;99.90;;;;;;5046873;28;20057;-74
2021/04/29 01:56:28;;;;;;;9.18;5.88;;;12.10;99.90;;;;;;5046111;28;20083;-74
2021/04/29 01:58:54;;;;;;;8.30;5.63;;;12.00;99.90;;;;;;5044366;28;20041;-74
2021/04/29 02:01:21;;;;;;;9.07;5.20;;;12.20;99.90;;;;;;5046372;28;20086;-74
2021/04/29 02:03:49;;;;;;;10.07;6.05;;;12.30;99.90;;;;;;5047012;28;20091;-74
2021/04/29 02:06:15;;;;;;;8.73;6.10;;;12.40;99.90;;;;;;5044722;28;20098;-75
2021/04/29 02:08:41;;;;;;;8.38;5.82;;;12.40;99.90;;;;;;5048931;28;20052;-75
2021/04/29 02:11:09;;;;;;;8.70;6.05;;;12.30;99.90;;;;;;5042642;28;20066;-75
2021/04/29 02:13:38;;;;;;;8.45;6.40;;;12.40;99.90;;;;;;5043305;28;20545;-75
2021/04/29 02:16:15;;;;;;;9.77;5.35;;;12.30;99.90;;;;;;5063171;28;20049;-75
2021/04/29 02:18:48;;;;;;;10.20;6.05;;;12.30;99.90;;;;;;5041929;28;20053;-74
2021/04/29 02:21:16;;;;;;;7.63;5.68;;;12.30;99.90;;;;;;5050446;28;20043;-75
2021/04/29 02:23:45;;;;;;;7.35;5.10;;;12.30;99.90;;;;;;5050646;28;20057;-74
2021/04/29 02:26:13;;;;;;;8.35;5.70;;;12.30;99.90;;;;;;5050443;28;20086;-74
2021/04/29 02:28:41;;;;;;;13.10;6.13;;;12.30;99.90;;;;;;5048323;28;20127;-74
2021/04/29 02:31:12;;;;;;;8.55;5.93;;;12.10;99.90;;;;;;5040899;28;20077;-74
2021/04/29 02:33:39;;;;;;;16.02;9.15;;;12.20;99.90;;;;;;5050295;28;20057;-73
2021/04/29 02:36:07;;;;;;;17.25;9.50;;;12.30;99.90;;;;;;5045868;28;20139;-74
2021/04/29 02:38:35;;;;;;;21.85;11.48;;;12.40;99.90;;;;;;5048478;28;20427;-74
2021/04/29 02:41:04;;;;;;;24.10;12.88;;;12.40;99.90;;;;;;5043804;28;20383;-73
2021/04/29 02:43:31;;;;;;;22.17;12.50;;;12.20;99.90;;;;;;5049004;28;20060;-74
2021/04/29 02:45:57;;;;;;;20.73;12.10;;;12.10;99.90;;;;;;5047716;28;20072;-74
2021/04/29 02:48:25;;;;;;;19.25;11.77;;;12.10;99.90;;;;;;5047067;28;20041;-73
2021/04/29 02:50:52;;;;;;;20.73;11.85;;;12.10;99.90;;;;;;5035851;28;20041;-74
2021/04/29 02:53:19;;;;;;;18.83;11.48;;;12.20;99.90;;;;;;5046341;28;20174;-73
2021/04/29 02:55:48;;;;;;;15.40;10.75;;;12.30;99.90;;;;;;5049472;28;20106;-74
2021/04/29 02:58:16;;;;;;;16.98;10.32;;;12.20;99.90;;;;;;5051955;28;20075;-74
2021/04/29 03:00:44;;;;;;;14.77;9.50;;;12.30;99.90;;;;;;5046887;28;20733;-73
2021/04/29 03:03:10;;;;;;;13.40;8.90;;;12.30;99.90;;;;;;5050408;28;20688;-75
2021/04/29 03:05:38;;;;;;;12.80;8.52;;;12.20;99.90;;;;;;5047414;28;20139;-75
2021/04/29 03:08:05;;;;;;;13.23;8.57;;;12.30;99.90;;;;;;5049851;28;20048;-75
2021/04/29 03:10:32;;;;;;;13.63;8.35;;;12.20;99.90;;;;;;5048992;28;20586;-75
2021/04/29 03:13:03;;;;;;;10.10;7.07;;;12.30;99.90;;;;;;5047137;28;20040;-75
2021/04/29 03:15:30;;;;;;;10.07;7.65;;;12.20;99.90;;;;;;5050579;28;20052;-74
2021/04/29 03:17:57;;;;;;;11.52;6.95;;;12.20;99.90;;;;;;5065489;28;20068;-74
2021/04/29 03:20:41;;;;;;;11.15;6.95;;;12.20;99.90;;;;;;5047572;28;20111;-73
2021/04/29 03:23:08;;;;;;;11.55;7.47;;;12.30;99.90;;;;;;5050671;28;20060;-73
2021/04/29 03:25:34;;;;;;;13.40;7.63;;;12.40;99.90;;;;;;5050388;28;20353;-73
2021/04/29 03:28:00;;;;;;;11.32;7.88;;;12.40;99.90;;;;;;5063362;28;20076;-73
2021/04/29 03:30:27;;;;;;;12.18;8.48;;;12.40;99.90;;;;;;5047347;28;20033;-73
2021/04/29 03:32:53;;;;;;;12.07;8.18;;;12.30;99.90;;;;;;5049151;28;20458;-73
2021/04/29 03:35:20;;;;;;;13.30;8.07;;;12.30;99.90;;;;;;5048841;28;20045;-74
2021/04/29 03:37:47;;;;;;;13.32;8.07;;;12.40;99.90;;;;;;5049618;28;20476;-74
2021/04/29 03:40:13;;;;;;;13.98;7.90;;;12.20;99.90;;;;;;5042863;28;20060;-73
2021/04/29 03:42:40;;;;;;;12.90;7.78;;;12.20;99.90;;;;;;5046286;28;20139;-74
2021/04/29 03:45:07;;;;;;;15.02;7.82;;;12.20;99.90;;;;;;5048617;28;20489;-74
2021/04/29 03:47:33;;;;;;;10.82;8.25;;;12.10;99.90;;;;;;5042066;28;20041;-73
2021/04/29 03:50:00;;;;;;;11.23;7.43;;;12.10;99.90;;;;;;5044269;28;20044;-74
2021/04/29 03:52:26;;;;;;;13.55;8.35;;;12.10;99.90;;;;;;5047589;28;20570;-73
2021/04/29 03:54:52;;;;;;;13.80;7.38;;;12.10;99.90;;;;;;5047852;28;20052;-73
2021/04/29 03:57:19;;;;;;;12.65;7.57;;;11.90;99.90;;;;;;5047840;28;20080;-73
2021/04/29 03:59:45;;;;;;;12.07;7.72;;;11.80;99.90;;;;;;5046786;28;20049;-75
2021/04/29 04:02:12;;;;;;;12.73;7.30;;;11.90;99.90;;;;;;5047970;28;20057;-74
2021/04/29 04:04:38;;;;;;;14.55;7.80;;;12.00;99.90;;;;;;5045495;28;20052;-75
2021/04/29 04:07:06;;;;;;;10.75;7.18;;;12.00;99.90;;;;;;5044521;28;20053;-75
2021/04/29 04:09:32;;;;;;;14.05;6.88;;;11.80;99.90;;;;;;5047780;28;20130;-74
2021/04/29 04:11:59;;;;;;;12.43;7.10;;;12.10;99.90;;;;;;5049195;28;20080;-74
2021/04/29 04:14:30;;;;;;;12.23;6.57;;;12.00;99.90;;;;;;5042481;28;20044;-74
2021/04/29 04:16:56;;;;;;;11.57;6.90;;;12.10;99.90;;;;;;5045712;28;20442;-76
2021/04/29 04:19:23;;;;;;;11.27;6.70;;;12.00;99.90;;;;;;5044960;28;20437;-74
2021/04/29 04:21:49;;;;;;;11.80;7.00;;;12.00;99.90;;;;;;5050175;28;20077;-74
2021/04/29 04:24:16;;;;;;;12.10;6.30;;;11.90;99.90;;;;;;5047774;28;20484;-75
2021/04/29 04:26:42;;;;;;;10.73;6.47;;;12.00;99.90;;;;;;5047342;28;20052;-75
2021/04/29 04:29:08;;;;;;;12.77;6.45;;;11.90;99.90;;;;;;5045358;28;20072;-75
2021/04/29 04:31:35;;;;;;;9.60;5.95;;;12.00;99.90;;;;;;5050131;28;20459;-73
2021/04/29 04:34:02;;;;;;;10.60;6.85;;;12.10;99.90;;;;;;5043361;28;20076;-74
2021/04/29 04:36:29;;;;;;;12.23;6.65;;;12.10;99.90;;;;;;5048868;28;20429;-74
2021/04/29 04:38:55;;;;;;;13.95;6.85;;;12.20;99.90;;;;;;5049104;28;20157;-74
2021/04/29 04:41:22;;;;;;;10.05;6.05;;;12.10;99.90;;;;;;5047893;28;20115;-75
2021/04/29 04:43:48;;;;;;;14.98;7.22;;;11.90;99.90;;;;;;5046069;28;20612;-74
2021/04/29 04:46:15;;;;;;;8.35;6.20;;;11.90;99.90;;;;;;5048316;28;20749;-74
2021/04/29 04:48:43;;;;;;;11.23;5.93;;;12.00;99.90;;;;;;5045684;28;20072;-75
2021/04/29 04:51:10;;;;;;;8.40;5.70;;;12.00;99.90;;;;;;5059252;28;20049;-74
2021/04/29 04:53:36;;;;;;;11.48;5.70;;;12.00;99.90;;;;;;5047863;28;20041;-75
2021/04/29 04:56:03;;;;;;;12.65;6.75;;;11.90;99.90;;;;;;5047583;28;20476;-75
2021/04/29 04:58:30;;;;;;;9.38;6.25;;;12.00;99.90;;;;;;5047348;28;20495;-74
2021/04/29 05:00:56;;;;;;;13.95;7.03;;;12.20;99.90;;;;;;5047935;28;20049;-74
2021/04/29 05:03:27;;;;;;;11.32;6.80;;;12.30;99.90;;;;;;5039550;28;20132;-74
2021/04/29 05:05:54;;;;;;;10.60;6.80;;;12.50;99.90;;;;;;5043920;28;20048;-74
2021/04/29 05:08:21;;;;;;;9.18;6.68;;;12.50;99.90;;;;;;5048067;28;20515;-73
2021/04/29 05:10:47;;;;;;;10.80;6.10;;;12.60;99.90;;;;;;5048425;28;20068;-74
2021/04/29 05:13:13;;;;;;;13.90;6.05;;;12.50;99.90;;;;;;5041426;28;20162;-74
2021/04/29 05:15:40;;;;;;;9.75;5.88;;;12.50;99.90;;;;;;5048095;28;20057;-74
2021/04/29 05:18:06;;;;;;;8.77;5.50;;;12.60;99.90;;;;;;5048077;28;20552;-76
2021/04/29 05:20:37;;;;;;;8.90;4.85;;;12.50;99.90;;;;;;5045729;28;20052;-75
2021/04/29 05:23:03;;;;;;;11.30;5.95;;;12.80;99.90;;;;;;5046026;28;20077;-75
2021/04/29 05:25:30;;;;;;;12.23;5.05;;;12.60;99.90;;;;;;5046314;28;20044;-75
2021/04/29 05:28:01;;;;;;;8.93;5.25;;;12.70;99.90;;;;;;5046071;28;20069;-76
2021/04/29 05:30:29;;;;;;;9.02;5.50;;;12.80;99.90;;;;;;5045388;28;20423;-75
2021/04/29 05:32:56;;;;;;;10.75;4.78;;;12.90;99.90;;;;;;5041946;28;20064;-75
2021/04/29 05:35:22;;;;;;;12.65;5.28;;;12.80;99.90;;;;;;5033407;28;20094;-74
2021/04/29 05:37:48;;;;;;;11.50;5.95;;;12.80;99.90;;;;;;5044458;28;20053;-75
2021/04/29 05:40:15;;;;;;;9.65;5.35;;;12.90;99.90;;;;;;5047181;28;20080;-75
2021/04/29 05:42:42;;;;;;;9.30;5.30;;;13.00;99.90;;;;;;5035928;28;20099;-75
2021/04/29 05:45:10;;;;;;;7.57;5.25;;;13.00;99.90;;;;;;5061647;28;20128;-75
2021/04/29 05:47:37;;;;;;;8.27;5.38;;;13.00;99.90;;;;;;5044610;28;20045;-75
2021/04/29 05:50:04;;;;;;;11.20;6.70;;;13.00;99.90;;;;;;5038271;28;20064;-75
2021/04/29 05:52:31;;;;;;;11.55;6.80;;;13.30;99.90;;;;;;5046916;28;20479;-76
2021/04/29 05:54:58;;;;;;;12.13;6.88;;;13.30;99.90;;;;;;5045242;28;20464;-74
2021/04/29 05:57:24;;;;;;;13.30;7.53;;;13.10;99.90;;;;;;5050973;28;20147;-76
2021/04/29 05:59:51;;;;;;;9.77;6.10;;;13.20;99.90;;;;;;5050559;28;20136;-76
2021/04/29 06:02:17;;;;;;;15.02;7.40;;;13.00;99.90;;;;;;5051203;28;20041;-75
2021/04/29 06:04:44;;;;;;;11.85;7.88;;;12.90;99.90;;;;;;5049730;28;20550;-76
2021/04/29 06:07:11;;;;;;;13.98;7.20;;;13.00;99.90;;;;;;5040953;28;20648;-76
2021/04/29 06:09:37;;;;;;;10.63;7.70;;;13.00;99.90;;;;;;5052937;28;20098;-76
2021/04/29 06:12:04;;;;;;;11.63;7.63;;;12.90;99.90;;;;;;5050242;28;20400;-76
2021/04/29 06:14:30;;;;;;;13.73;8.07;;;13.30;99.90;;;;;;5046384;28;20484;-77
2021/04/29 06:16:57;;;;;;;13.73;7.07;;;13.40;99.90;;;;;;5046866;28;20135;-76
2021/04/29 06:19:24;;;;;;;11.82;6.93;;;13.60;99.90;;;;;;5049208;28;20056;-75
2021/04/29 06:21:50;;;;;;;12.60;6.70;;;13.50;99.90;;;;;;5051534;28;20522;-76
2021/04/29 06:24:16;;;;;;;11.32;6.47;;;13.40;99.90;;;;;;5049439;28;20549;-76
2021/04/29 06:26:43;;;;;;;10.00;6.38;;;13.50;99.90;;;;;;5047771;28;20083;-76
2021/04/29 06:29:10;;;;;;;9.35;6.72;;;13.60;99.90;;;;;;5048848;28;20048;-75
2021/04/29 06:31:39;;;;;;;12.50;6.45;;;13.70;99.90;;;;;;5048653;28;20053;-76
2021/04/29 06:34:06;;;;;;;13.25;6.50;;;13.60;99.90;;;;;;5044837;28;20120;-71
2021/04/29 06:36:33;;;;;;;10.70;6.30;;;13.60;99.90;;;;;;5049098;28;20499;-75
2021/04/29 06:38:59;;;;;;;12.00;6.38;;;13.60;99.90;;;;;;5050737;28;20044;-75
2021/04/29 06:41:26;;;;;;;9.65;5.78;;;13.70;99.90;;;;;;5043407;28;20057;-74
2021/04/29 06:43:53;;;;;;;8.63;5.10;;;13.80;99.90;;;;;;5048590;28;20589;-75
2021/04/29 06:46:19;;;;;;;9.35;5.75;;;14.00;99.90;;;;;;5049058;28;20041;-75
2021/04/29 06:48:46;;;;;;;10.73;5.40;;;14.30;99.90;;;;;;5048875;28;20115;-75
2021/04/29 06:51:13;;;;;;;7.40;5.22;;;14.40;99.80;;;;;;5051963;28;20444;-76
2021/04/29 06:53:59;;;;;;;8.38;5.22;;;14.50;98.80;;;;;;5049190;28;20439;-75
2021/04/29 06:56:26;;;;;;;9.48;5.10;;;14.50;98.80;;;;;;5043392;28;20110;-74
2021/04/29 06:59:02;;;;;;;9.35;5.60;;;14.00;99.70;;;;;;5050172;28;20510;-74
2021/04/29 07:01:28;;;;;;;10.43;5.53;;;14.00;99.90;;;;;;5046130;28;20053;-84
2021/04/29 07:03:56;;;;;;;11.02;5.72;;;13.70;99.90;;;;;;5037185;28;20252;-80
2021/04/29 07:06:23;;;;;;;12.70;5.60;;;13.70;99.90;;;;;;5041881;28;20083;-77
2021/04/29 07:08:49;;;;;;;10.73;5.80;;;14.10;99.60;;;;;;5041781;28;20057;-74
2021/04/29 07:11:17;;;;;;;8.80;5.00;;;14.20;99.10;;;;;;5038985;28;20220;-75
2021/04/29 07:13:44;;;;;;;11.52;6.15;;;14.40;98.20;;;;;;5043021;28;20057;-76
2021/04/29 07:16:10;;;;;;;7.82;5.55;;;14.40;97.20;;;;;;5043139;28;20146;-76
2021/04/29 07:18:37;;;;;;;9.02;5.15;;;14.10;96.30;;;;;;5041113;28;20161;-76
2021/04/29 07:21:03;;;;;;;8.43;5.43;;;14.00;96.60;;;;;;5046612;28;20060;-75
2021/04/29 07:23:30;;;;;;;9.82;5.20;;;14.20;97.20;;;;;;5044813;28;20045;-76
2021/04/29 07:25:57;;;;;;;7.60;5.10;;;14.30;95.90;;;;;;5035158;28;20052;-76
2021/04/29 07:28:24;;;;;;;11.25;5.40;;;14.50;95.10;;;;;;5042497;28;20079;-76
2021/04/29 07:30:51;;;;;;;8.50;4.85;;;14.40;95.30;;;;;;5042793;28;20083;-75
2021/04/29 07:33:17;;;;;;;10.05;5.10;;;14.40;94.60;;;;;;5036117;28;20038;-75
2021/04/29 07:35:44;;;;;;;7.78;5.22;;;15.60;91.90;;;;;;5048187;28;20495;-76
2021/04/29 07:38:11;;;;;;;7.45;4.88;;;15.20;90.40;;;;;;5049717;28;20099;-76
2021/04/29 07:40:38;;;;;;;9.55;4.97;;;14.60;91.50;;;;;;5047801;28;20685;-75
2021/04/29 07:43:05;;;;;;;8.85;5.13;;;14.60;92.80;;;;;;5041949;28;20447;-74
2021/04/29 07:45:32;;;;;;;16.02;7.65;;;14.90;92.10;;;;;;5045699;28;20130;-75
2021/04/29 07:47:58;;;;;;;11.75;5.10;;;15.00;92.20;;;;;;5043164;28;20048;-76
2021/04/29 07:50:27;;;;;;;8.13;4.97;;;14.70;92.00;;;;;;5040592;28;20045;-76
2021/04/29 07:52:56;;;;;;;8.80;5.22;;;14.60;91.90;;;;;;5047251;28;20454;-76
2021/04/29 07:55:22;;;;;;;6.43;4.60;;;14.60;91.70;;;;;;5049346;28;20051;-76
2021/04/29 07:57:49;;;;;;;7.97;5.43;;;14.40;92.40;;;;;;5039669;28;20135;-76
2021/04/29 08:00:15;;;;;;;9.75;5.30;;;14.30;93.30;;;;;;5036319;28;20063;-76
2021/04/29 08:02:42;;;;;;;7.60;5.07;;;14.30;93.70;;;;;;5027346;28;20175;-76
2021/04/29 08:05:10;;;;;;;11.38;5.30;;;14.10;93.00;;;;;;5031360;28;21343;-76
2021/04/29 08:07:38;;;;;;;9.38;5.05;;;14.20;93.40;;;;;;5053548;28;20136;-76
2021/04/29 08:10:06;;;;;;;10.45;5.68;;;14.30;93.60;;;;;;5031732;28;20460;-76
2021/04/29 08:12:32;;;;;;;6.57;4.15;;;14.30;93.60;;;;;;5028381;28;20133;-75
2021/04/29 08:15:00;;;;;;;8.73;5.65;;;14.20;92.90;;;;;;5032857;28;20061;-74
2021/04/29 08:17:27;;;;;;;9.25;5.25;;;14.20;93.10;;;;;;5031735;28;20048;-75
2021/04/29 08:19:55;;;;;;;8.23;5.43;;;14.20;93.00;;;;;;5030089;28;20052;-74
2021/04/29 08:22:23;;;;;;;8.45;5.45;;;14.40;92.90;;;;;;5030422;28;20634;-76
2021/04/29 08:24:52;;;;;;;7.05;4.90;;;14.80;92.00;;;;;;5030164;28;20560;-73
2021/04/29 08:27:18;;;;;;;7.88;5.20;;;15.10;91.40;;;;;;5030821;28;20428;-79
2021/04/29 08:29:46;;;;;;;8.02;5.38;;;14.90;91.20;;;;;;5030585;28;20475;-73
2021/04/29 08:32:12;;;;;;;7.78;4.97;;;15.10;90.70;;;;;;5032083;28;20115;-76
2021/04/29 08:34:39;;;;;;;9.95;5.50;;;15.40;89.40;;;;;;5030957;28;20184;-75
2021/04/29 08:37:05;;;;;;;9.18;5.38;;;15.20;88.80;;;;;;5033147;28;20060;-77
2021/04/29 08:39:33;;;;;;;6.38;5.10;;;15.40;88.60;;;;;;5031204;28;20079;-79
2021/04/29 08:41:59;;;;;;;36.80;11.18;;;15.30;88.40;;;;;;5033939;28;20675;-75
2021/04/29 08:44:27;;;;;;;14.68;6.72;;;15.50;87.50;;;;;;5029575;28;20080;-75
2021/04/29 08:46:53;;;;;;;25.65;9.77;;;15.50;87.40;;;;;;5029806;28;20071;-75
2021/04/29 08:49:22;;;;;;;20.40;9.00;;;15.80;87.00;;;;;;5031021;28;20107;-75
2021/04/29 08:51:51;;;;;;;15.65;8.55;;;15.70;86.40;;;;;;5032040;28;20738;-75
2021/04/29 08:54:18;;;;;;;14.35;8.00;;;15.50;84.40;;;;;;5030683;28;20542;-76
2021/04/29 08:56:46;;;;;;;10.45;6.45;;;15.60;82.50;;;;;;5029985;28;20040;-75
2021/04/29 08:59:13;;;;;;;11.18;6.88;;;15.90;82.20;;;;;;5031650;28;20055;-75
2021/04/29 09:01:41;;;;;;;14.00;7.80;;;16.50;79.80;;;;;;5031210;28;20718;-73
2021/04/29 09:04:09;;;;;;;16.77;7.80;;;16.40;80.90;;;;;;5028896;28;20575;-77
2021/04/29 09:06:36;;;;;;;15.45;8.73;;;16.20;79.30;;;;;;5030528;28;20183;-75
2021/04/29 09:09:03;;;;;;;11.23;6.60;;;16.30;80.60;;;;;;5034113;28;20508;-74
2021/04/29 09:11:29;;;;;;;13.13;7.45;;;16.00;79.80;;;;;;5029333;28;20060;-75
2021/04/29 09:14:08;;;;;;;13.57;7.20;;;16.00;80.00;;;;;;5030650;28;20663;-75
2021/04/29 09:16:44;;;;;;;9.43;6.10;;;15.90;80.60;;;;;;5028967;28;20053;-75
2021/04/29 09:19:18;;;;;;;11.43;6.55;;;15.80;80.40;;;;;;5027198;28;20089;-74
2021/04/29 09:21:44;;;;;;;11.07;7.07;;;15.90;81.60;;;;;;5028603;28;20049;-75
2021/04/29 09:24:11;;;;;;;10.98;6.05;;;15.80;82.50;;;;;;5030178;28;20470;-77
2021/04/29 09:26:38;;;;;;;10.48;6.30;;;15.90;81.70;;;;;;5028606;28;20759;-77
2021/04/29 09:29:14;;;;;;;14.63;7.22;;;16.20;80.10;;;;;;5033895;28;20203;-75
2021/04/29 09:31:44;;;;;;;11.45;6.95;;;16.30;78.50;;;;;;5030017;28;20053;-74
2021/04/29 09:34:12;;;;;;;11.07;7.28;;;16.20;76.80;;;;;;5029596;28;20045;-75
2021/04/29 09:36:45;;;;;;;10.15;7.43;;;16.20;76.60;;;;;;5030965;28;20118;-75
2021/04/29 09:39:14;;;;;;;10.55;7.30;;;15.80;77.00;;;;;;5031373;28;21705;-75
2021/04/29 09:41:46;;;;;;;13.57;7.70;;;16.10;76.80;;;;;;5030016;28;20139;-75
2021/04/29 09:44:18;;;;;;;14.35;7.65;;;16.10;75.00;;;;;;5029571;28;20060;-74
2021/04/29 09:46:46;;;;;;;18.50;6.78;;;16.20;72.30;;;;;;5029867;28;20443;-74
2021/04/29 09:49:39;;;;;;;13.15;7.28;;;16.00;72.50;;;;;;5030513;28;20559;-76
2021/04/29 09:52:25;;;;;;;11.57;6.72;;;16.40;72.10;;;;;;5028972;28;20052;-75
2021/04/29 09:54:55;;;;;;;9.85;6.82;;;16.90;71.50;;;;;;5030286;28;20077;-75
2021/04/29 09:57:26;;;;;;;13.85;7.18;;;16.60;68.50;;;;;;5029915;28;20145;-75
2021/04/29 09:59:59;;;;;;;;;;;16.30;71.10;;;;;;5030882;28;20053;-74
2021/04/29 10:02:29;;;;;;;10.68;6.60;;;16.60;72.60;;;;;;5029967;28;20451;-74
2021/04/29 10:04:55;;;;;;;11.20;6.80;;;17.00;69.20;;;;;;5030065;28;20080;-74
2021/04/29 10:07:23;;;;;;;12.07;6.88;;;16.90;69.70;;;;;;5027497;28;20081;-75
2021/04/29 10:09:50;;;;;;;12.15;7.22;;;16.40;67.00;;;;;;5030959;28;20145;-75
2021/04/29 10:12:18;;;;;;;13.40;7.25;;;16.30;67.30;;;;;;5027909;28;20049;-74
2021/04/29 10:14:45;;;;;;;11.55;6.65;;;16.20;70.30;;;;;;5030894;28;20045;-74
2021/04/29 10:17:14;;;;;;;9.60;6.47;;;16.70;69.40;;;;;;5028262;28;20458;-74
2021/04/29 10:19:46;;;;;;;9.88;6.90;;;17.40;67.20;;;;;;5032486;28;20050;-75
2021/04/29 10:22:13;;;;;;;8.48;6.43;;;17.60;68.30;;;;;;5029735;28;20198;-75
2021/04/29 10:24:41;;;;;;;10.25;6.88;;;17.90;65.30;;;;;;5043410;28;20056;-74
2021/04/29 10:27:10;;;;;;;10.38;6.57;;;18.90;61.40;;;;;;5029656;28;20099;-74
2021/04/29 10:29:37;;;;;;;11.65;6.82;;;18.80;59.60;;;;;;5029722;28;20122;-75
2021/04/29 10:32:10;;;;;;;11.18;6.82;;;18.80;58.70;;;;;;5028412;28;20049;-75
2021/04/29 10:34:47;;;;;;;9.38;6.30;;;19.60;58.70;;;;;;5030814;28;20064;-75
2021/04/29 10:37:19;;;;;;;8.35;5.60;;;18.30;58.70;;;;;;5029498;28;20092;-75
2021/04/29 10:39:57;;;;;;;8.57;6.35;;;18.40;60.00;;;;;;5030827;28;21306;-75
2021/04/29 10:42:28;;;;;;;8.90;5.95;;;19.70;57.40;;;;;;5033158;28;20055;-76
2021/04/29 10:45:06;;;;;;;9.63;6.10;;;19.60;56.00;;;;;;5032733;28;20060;-76
2021/04/29 10:47:32;;;;;;;10.13;6.55;;;19.60;54.90;;;;;;5033606;28;20067;-74
2021/04/29 10:50:13;;;;;;;8.30;6.15;;;20.00;55.00;;;;;;5032000;28;20045;-74
2021/04/29 10:52:54;;;;;;;9.77;5.68;;;20.80;52.70;;;;;;5033905;28;20176;-72
2021/04/29 10:55:28;;;;;;;11.32;6.13;;;21.30;51.20;;;;;;5028550;28;20098;-74
2021/04/29 10:57:55;;;;;;;14.27;6.10;;;19.50;53.60;;;;;;5030045;28;20057;-75
2021/04/29 11:00:24;;;;;;;9.40;5.85;;;19.90;53.60;;;;;;5028373;28;20601;-75
2021/04/29 11:03:01;;;;;;;9.65;5.63;;;18.70;53.60;;;;;;5043626;28;20426;-75
2021/04/29 11:05:29;;;;;;;10.90;5.10;;;18.10;55.60;;;;;;5047044;28;20057;-75
2021/04/29 11:08:05;;;;;;;13.18;4.97;;;17.90;53.40;;;;;;5052553;28;20072;-74
2021/04/29 11:10:37;;;;;;;7.75;4.85;;;17.90;53.70;;;;;;5043154;28;20502;-74
2021/04/29 11:13:06;;;;;;;7.82;4.47;;;18.40;53.60;;;;;;5040796;28;20065;-75
2021/04/29 11:15:38;;;;;;;5.50;3.88;;;18.00;52.60;;;;;;5049242;28;20053;-74
2021/04/29 11:18:11;;;;;;;9.40;4.55;;;17.80;50.90;;;;;;5046010;28;20053;-75
2021/04/29 11:20:58;;;;;;;7.18;3.55;;;17.70;52.60;;;;;;5048310;28;20114;-76
2021/04/29 11:23:38;;;;;;;6.07;3.70;;;17.80;50.60;;;;;;5046520;28;20041;-75
2021/04/29 11:26:06;;;;;;;10.63;3.17;;;18.10;50.60;;;;;;5045738;28;20097;-75
2021/04/29 11:28:32;;;;;;;7.85;3.63;;;18.10;49.20;;;;;;5046318;28;20131;-75
2021/04/29 11:30:59;;;;;;;4.03;2.90;;;18.40;48.90;;;;;;5052779;28;20067;-73
2021/04/29 11:33:32;;;;;;;4.93;2.80;;;17.90;49.20;;;;;;5040904;28;20110;-74
2021/04/29 11:36:00;;;;;;;6.82;2.90;;;18.50;48.30;;;;;;5041871;28;20529;-74
2021/04/29 11:38:27;;;;;;;4.60;2.80;;;18.30;48.50;;;;;;5042578;28;20057;-74
2021/04/29 11:40:53;;;;;;;4.47;2.58;;;18.30;48.70;;;;;;5044652;28;20434;-74
2021/04/29 11:43:22;;;;;;;3.53;2.65;;;17.80;47.60;;;;;;5042230;28;20084;-74
2021/04/29 11:45:51;;;;;;;5.60;2.55;;;18.10;46.90;;;;;;5042250;28;20060;-74
2021/04/29 11:48:24;;;;;;;9.23;3.00;;;18.30;47.20;;;;;;5044077;28;20049;-74
2021/04/29 11:50:52;;;;;;;5.10;2.88;;;17.80;49.90;;;;;;5040432;28;20816;-74
2021/04/29 11:53:30;;;;;;;4.75;2.58;;;17.40;51.70;;;;;;5044004;28;20048;-74
2021/04/29 11:56:02;;;;;;;5.25;2.40;;;17.40;50.90;;;;;;5036107;28;20056;-73
2021/04/29 11:58:28;;;;;;;3.67;2.15;;;17.50;50.00;;;;;;5042139;28;20172;-74
2021/04/29 12:00:56;;;;;;;7.82;2.60;;;17.20;50.20;;;;;;5042482;28;20187;-77
2021/04/29 12:03:24;;;;;;;3.78;2.00;;;17.70;49.30;;;;;;5040673;28;20075;-74
2021/04/29 12:05:53;;;;;;;4.85;2.10;;;18.80;48.60;;;;;;5042683;28;20053;-72
2021/04/29 12:08:27;;;;;;;3.83;2.22;;;19.20;46.80;;;;;;5043459;28;20194;-73
2021/04/29 12:10:58;;;;;;;4.10;2.22;;;19.10;46.30;;;;;;5042556;28;20054;-74
2021/04/29 12:13:38;;;;;;;3.92;2.50;;;19.00;44.90;;;;;;5043437;28;20431;-73
2021/04/29 12:16:11;;;;;;;3.85;2.40;;;19.30;45.90;;;;;;5043054;28;20140;-73
2021/04/29 12:18:42;;;;;;;3.33;2.53;;;19.60;44.90;;;;;;5042287;28;20079;-74
2021/04/29 12:21:09;;;;;;;3.95;2.50;;;19.70;45.40;;;;;;5037659;28;20064;-74
2021/04/29 12:23:36;;;;;;;6.82;2.58;;;20.80;43.90;;;;;;5038629;28;20405;-75
2021/04/29 12:26:05;;;;;;;5.45;2.40;;;21.90;42.30;;;;;;5041510;28;20187;-74
2021/04/29 12:28:36;;;;;;;6.90;2.90;;;21.80;42.20;;;;;;5042901;28;20169;-74
2021/04/29 12:31:22;;;;;;;7.60;2.72;;;20.00;43.10;;;;;;5041543;28;20068;-73
2021/04/29 12:34:04;;;;;;;2.55;2.10;;;18.70;44.30;;;;;;5042169;28;20060;-75
2021/04/29 12:36:36;;;;;;;8.73;2.40;;;18.30;44.20;;;;;;5043646;28;20049;-74
2021/04/29 12:39:16;;;;;;;5.68;2.65;;;18.60;44.60;;;;;;5042014;28;20496;-74
2021/04/29 12:41:54;;;;;;;7.18;2.67;;;20.00;42.90;;;;;;5041762;28;20063;-75
2021/04/29 12:44:58;;;;;;;3.55;1.98;;;20.30;41.30;;;;;;5041433;28;20061;-74
2021/04/29 12:47:28;;;;;;;4.60;2.00;;;20.50;40.80;;;;;;5038442;28;20040;-74
2021/04/29 12:50:19;;;;;;;3.33;1.92;;;20.70;40.80;;;;;;5042170;28;20155;-74